sensor_id;sensor_type;location;lat;lon;timestamp;P1;durP1;ratioP1;P2;durP2;ratioP2
75634;SDS011;64227;48.724;9.104;2024-03-08T00:02:23;17.13;;;9.90;;
75634;SDS011;64227;48.724;9.104;2024-03-08T00:04:48;20.42;;;9.90;;
75634;SDS011;64227;48.724;9.104;2024-03-08T00:07:13;18.92;;;9.80;;
75634;SDS011;64227;48.724;9.104;2024-03-08T00:09:39;21.05;;;10.15;;
75634;SDS011;64227;48.724;9.104;2024-03-08T00:12:04;20.83;;;10.27;;
75634;SDS011;64227;48.724;9.104;2024-03-08T00:14:31;17.25;;;9.13;;
75634;SDS011;64227;48.724;9.104;2024-03-08T00:16:56;21.48;;;9.77;;
75634;SDS011;64227;48.724;9.104;2024-03-08T00:19:21;16.58;;;9.13;;
75634;SDS011;64227;48.724;9.104;2024-03-08T00:21:47;20.90;;;10.38;;
75634;SDS011;64227;48.724;9.104;2024-03-08T00:24:12;19.30;;;10.15;;
75634;SDS011;64227;48.724;9.104;2024-03-08T00:26:37;20.58;;;9.77;;
75634;SDS011;64227;48.724;9.104;2024-03-08T00:29:03;21.67;;;9.73;;
75634;SDS011;64227;48.724;9.104;2024-03-08T00:31:28;18.95;;;9.60;;
75634;SDS011;64227;48.724;9.104;2024-03-08T00:33:55;20.05;;;9.10;;
75634;SDS011;64227;48.724;9.104;2024-03-08T00:36:21;18.15;;;9.15;;
75634;SDS011;64227;48.724;9.104;2024-03-08T00:38:47;17.20;;;8.32;;
75634;SDS011;64227;48.724;9.104;2024-03-08T00:41:12;18.73;;;8.95;;
75634;SDS011;64227;48.724;9.104;2024-03-08T00:43:38;20.00;;;9.73;;
75634;SDS011;64227;48.724;9.104;2024-03-08T00:46:03;18.60;;;9.48;;
75634;SDS011;64227;48.724;9.104;2024-03-08T00:48:28;19.48;;;9.07;;
75634;SDS011;64227;48.724;9.104;2024-03-08T00:50:54;16.35;;;8.60;;
75634;SDS011;64227;48.724;9.104;2024-03-08T00:53:19;17.65;;;8.85;;
75634;SDS011;64227;48.724;9.104;2024-03-08T00:55:44;20.55;;;9.18;;
75634;SDS011;64227;48.724;9.104;2024-03-08T00:58:11;18.70;;;9.18;;
75634;SDS011;64227;48.724;9.104;2024-03-08T01:00:37;16.33;;;8.77;;
75634;SDS011;64227;48.724;9.104;2024-03-08T01:03:05;19.50;;;9.10;;
75634;SDS011;64227;48.724;9.104;2024-03-08T01:05:30;15.40;;;8.75;;
75634;SDS011;64227;48.724;9.104;2024-03-08T01:07:55;16.73;;;8.52;;
75634;SDS011;64227;48.724;9.104;2024-03-08T01:10:23;17.13;;;8.43;;
75634;SDS011;64227;48.724;9.104;2024-03-08T01:12:54;17.15;;;7.85;;
75634;SDS011;64227;48.724;9.104;2024-03-08T01:15:24;16.70;;;8.70;;
75634;SDS011;64227;48.724;9.104;2024-03-08T01:17:54;20.45;;;9.02;;
75634;SDS011;64227;48.724;9.104;2024-03-08T01:20:23;18.98;;;8.13;;
75634;SDS011;64227;48.724;9.104;2024-03-08T01:22:51;17.05;;;8.02;;
75634;SDS011;64227;48.724;9.104;2024-03-08T01:25:22;17.13;;;8.68;;
75634;SDS011;64227;48.724;9.104;2024-03-08T01:27:50;15.18;;;9.05;;
75634;SDS011;64227;48.724;9.104;2024-03-08T01:30:16;15.60;;;8.30;;
75634;SDS011;64227;48.724;9.104;2024-03-08T01:32:46;17.13;;;8.10;;
75634;SDS011;64227;48.724;9.104;2024-03-08T01:35:14;18.67;;;9.48;;
75634;SDS011;64227;48.724;9.104;2024-03-08T01:37:39;20.67;;;9.02;;
75634;SDS011;64227;48.724;9.104;2024-03-08T01:40:05;18.35;;;9.25;;
75634;SDS011;64227;48.724;9.104;2024-03-08T01:42:35;17.35;;;8.48;;
75634;SDS011;64227;48.724;9.104;2024-03-08T01:45:07;15.35;;;7.82;;
75634;SDS011;64227;48.724;9.104;2024-03-08T01:47:32;16.92;;;8.63;;
75634;SDS011;64227;48.724;9.104;2024-03-08T01:49:59;15.65;;;8.40;;
75634;SDS011;64227;48.724;9.104;2024-03-08T01:52:28;20.25;;;9.50;;
75634;SDS011;64227;48.724;9.104;2024-03-08T01:55:01;16.65;;;9.18;;
75634;SDS011;64227;48.724;9.104;2024-03-08T01:57:28;17.85;;;8.80;;
75634;SDS011;64227;48.724;9.104;2024-03-08T01:59:53;17.20;;;8.70;;
75634;SDS011;64227;48.724;9.104;2024-03-08T02:02:20;17.95;;;8.40;;
75634;SDS011;64227;48.724;9.104;2024-03-08T02:04:46;20.45;;;8.48;;
75634;SDS011;64227;48.724;9.104;2024-03-08T02:07:12;19.52;;;8.45;;
75634;SDS011;64227;48.724;9.104;2024-03-08T02:09:37;18.08;;;8.10;;
75634;SDS011;64227;48.724;9.104;2024-03-08T02:12:05;18.42;;;9.07;;
75634;SDS011;64227;48.724;9.104;2024-03-08T02:14:34;19.55;;;8.77;;
75634;SDS011;64227;48.724;9.104;2024-03-08T02:17:00;16.15;;;8.95;;
75634;SDS011;64227;48.724;9.104;2024-03-08T02:19:32;17.40;;;8.57;;
75634;SDS011;64227;48.724;9.104;2024-03-08T02:21:58;17.42;;;8.07;;
75634;SDS011;64227;48.724;9.104;2024-03-08T02:24:29;15.93;;;8.30;;
75634;SDS011;64227;48.724;9.104;2024-03-08T02:26:58;17.58;;;8.63;;
75634;SDS011;64227;48.724;9.104;2024-03-08T02:29:26;16.67;;;8.40;;
75634;SDS011;64227;48.724;9.104;2024-03-08T02:31:54;15.40;;;7.13;;
75634;SDS011;64227;48.724;9.104;2024-03-08T02:34:24;16.50;;;8.18;;
75634;SDS011;64227;48.724;9.104;2024-03-08T02:37:02;16.52;;;8.63;;
75634;SDS011;64227;48.724;9.104;2024-03-08T02:41:53;12.73;;;6.60;;
75634;SDS011;64227;48.724;9.104;2024-03-08T02:44:22;14.70;;;7.18;;
75634;SDS011;64227;48.724;9.104;2024-03-08T02:46:50;20.67;;;8.80;;
75634;SDS011;64227;48.724;9.104;2024-03-08T02:49:18;14.73;;;7.32;;
75634;SDS011;64227;48.724;9.104;2024-03-08T02:51:43;15.23;;;8.05;;
75634;SDS011;64227;48.724;9.104;2024-03-08T02:54:09;14.43;;;8.23;;
75634;SDS011;64227;48.724;9.104;2024-03-08T02:56:35;15.95;;;7.90;;
75634;SDS011;64227;48.724;9.104;2024-03-08T02:59:03;13.98;;;7.13;;
75634;SDS011;64227;48.724;9.104;2024-03-08T03:01:28;16.13;;;8.23;;
75634;SDS011;64227;48.724;9.104;2024-03-08T03:03:57;13.43;;;7.53;;
75634;SDS011;64227;48.724;9.104;2024-03-08T03:06:23;13.70;;;7.88;;
75634;SDS011;64227;48.724;9.104;2024-03-08T03:08:51;14.10;;;7.65;;
75634;SDS011;64227;48.724;9.104;2024-03-08T03:11:16;14.02;;;7.10;;
75634;SDS011;64227;48.724;9.104;2024-03-08T03:13:42;14.85;;;7.32;;
75634;SDS011;64227;48.724;9.104;2024-03-08T03:16:16;14.50;;;7.57;;
75634;SDS011;64227;48.724;9.104;2024-03-08T03:18:47;14.35;;;7.13;;
75634;SDS011;64227;48.724;9.104;2024-03-08T03:21:13;17.60;;;8.77;;
75634;SDS011;64227;48.724;9.104;2024-03-08T03:23:39;11.82;;;6.43;;
75634;SDS011;64227;48.724;9.104;2024-03-08T03:26:06;17.65;;;7.50;;
75634;SDS011;64227;48.724;9.104;2024-03-08T03:28:36;14.73;;;7.50;;
75634;SDS011;64227;48.724;9.104;2024-03-08T03:31:04;15.18;;;7.68;;
75634;SDS011;64227;48.724;9.104;2024-03-08T03:33:32;14.52;;;7.55;;
75634;SDS011;64227;48.724;9.104;2024-03-08T03:35:59;18.08;;;8.20;;
75634;SDS011;64227;48.724;9.104;2024-03-08T03:38:25;14.75;;;6.90;;
75634;SDS011;64227;48.724;9.104;2024-03-08T03:40:52;15.85;;;6.90;;
75634;SDS011;64227;48.724;9.104;2024-03-08T03:43:21;13.43;;;7.03;;
75634;SDS011;64227;48.724;9.104;2024-03-08T03:45:46;13.95;;;7.00;;
75634;SDS011;64227;48.724;9.104;2024-03-08T03:48:12;14.32;;;7.45;;
75634;SDS011;64227;48.724;9.104;2024-03-08T03:50:37;14.95;;;7.97;;
75634;SDS011;64227;48.724;9.104;2024-03-08T03:53:03;16.65;;;7.97;;
75634;SDS011;64227;48.724;9.104;2024-03-08T03:55:29;13.95;;;7.10;;
75634;SDS011;64227;48.724;9.104;2024-03-08T03:57:54;14.80;;;7.32;;
75634;SDS011;64227;48.724;9.104;2024-03-08T04:00:20;15.25;;;7.47;;
75634;SDS011;64227;48.724;9.104;2024-03-08T04:02:45;18.25;;;8.40;;
75634;SDS011;64227;48.724;9.104;2024-03-08T04:05:11;16.08;;;8.02;;
75634;SDS011;64227;48.724;9.104;2024-03-08T04:07:37;19.25;;;8.07;;
75634;SDS011;64227;48.724;9.104;2024-03-08T04:10:03;17.50;;;7.28;;
75634;SDS011;64227;48.724;9.104;2024-03-08T04:12:34;17.20;;;7.95;;
75634;SDS011;64227;48.724;9.104;2024-03-08T04:14:59;14.90;;;7.22;;
75634;SDS011;64227;48.724;9.104;2024-03-08T04:17:25;19.17;;;8.02;;
75634;SDS011;64227;48.724;9.104;2024-03-08T04:19:50;13.73;;;7.65;;
75634;SDS011;64227;48.724;9.104;2024-03-08T04:22:16;15.38;;;7.95;;
75634;SDS011;64227;48.724;9.104;2024-03-08T04:24:42;14.00;;;7.50;;
75634;SDS011;64227;48.724;9.104;2024-03-08T04:27:08;14.98;;;7.38;;
75634;SDS011;64227;48.724;9.104;2024-03-08T04:29:34;15.35;;;7.80;;
75634;SDS011;64227;48.724;9.104;2024-03-08T04:31:59;16.33;;;8.27;;
75634;SDS011;64227;48.724;9.104;2024-03-08T04:34:25;14.95;;;7.45;;
75634;SDS011;64227;48.724;9.104;2024-03-08T04:36:53;13.35;;;7.57;;
75634;SDS011;64227;48.724;9.104;2024-03-08T04:39:19;16.65;;;8.70;;
75634;SDS011;64227;48.724;9.104;2024-03-08T04:41:44;14.00;;;7.68;;
75634;SDS011;64227;48.724;9.104;2024-03-08T04:44:10;21.08;;;8.88;;
75634;SDS011;64227;48.724;9.104;2024-03-08T04:46:37;18.45;;;8.57;;
75634;SDS011;64227;48.724;9.104;2024-03-08T04:49:02;14.80;;;7.88;;
75634;SDS011;64227;48.724;9.104;2024-03-08T04:51:28;13.77;;;7.03;;
75634;SDS011;64227;48.724;9.104;2024-03-08T04:53:53;13.38;;;7.82;;
75634;SDS011;64227;48.724;9.104;2024-03-08T04:56:18;16.13;;;7.97;;
75634;SDS011;64227;48.724;9.104;2024-03-08T04:58:44;16.73;;;8.40;;
75634;SDS011;64227;48.724;9.104;2024-03-08T05:01:11;15.10;;;7.55;;
75634;SDS011;64227;48.724;9.104;2024-03-08T05:03:37;15.02;;;7.63;;
75634;SDS011;64227;48.724;9.104;2024-03-08T05:06:03;17.13;;;7.78;;
75634;SDS011;64227;48.724;9.104;2024-03-08T05:08:29;17.17;;;8.07;;
75634;SDS011;64227;48.724;9.104;2024-03-08T05:10:54;18.02;;;8.15;;
75634;SDS011;64227;48.724;9.104;2024-03-08T05:13:19;15.07;;;8.07;;
75634;SDS011;64227;48.724;9.104;2024-03-08T05:15:48;15.45;;;6.40;;
75634;SDS011;64227;48.724;9.104;2024-03-08T05:18:15;17.63;;;7.82;;
75634;SDS011;64227;48.724;9.104;2024-03-08T05:20:40;17.25;;;8.23;;
75634;SDS011;64227;48.724;9.104;2024-03-08T05:23:06;17.10;;;8.65;;
75634;SDS011;64227;48.724;9.104;2024-03-08T05:25:32;17.17;;;8.55;;
75634;SDS011;64227;48.724;9.104;2024-03-08T05:27:57;17.05;;;8.18;;
75634;SDS011;64227;48.724;9.104;2024-03-08T05:30:23;16.45;;;8.38;;
75634;SDS011;64227;48.724;9.104;2024-03-08T05:32:48;16.20;;;8.07;;
75634;SDS011;64227;48.724;9.104;2024-03-08T05:35:14;18.95;;;9.35;;
75634;SDS011;64227;48.724;9.104;2024-03-08T05:37:41;18.67;;;8.88;;
75634;SDS011;64227;48.724;9.104;2024-03-08T05:40:07;15.07;;;8.73;;
75634;SDS011;64227;48.724;9.104;2024-03-08T05:42:37;17.05;;;9.02;;
75634;SDS011;64227;48.724;9.104;2024-03-08T05:45:06;15.75;;;7.90;;
75634;SDS011;64227;48.724;9.104;2024-03-08T05:47:32;17.88;;;8.98;;
75634;SDS011;64227;48.724;9.104;2024-03-08T05:50:00;16.65;;;8.20;;
75634;SDS011;64227;48.724;9.104;2024-03-08T05:52:25;17.95;;;9.02;;
75634;SDS011;64227;48.724;9.104;2024-03-08T05:54:51;14.80;;;8.20;;
75634;SDS011;64227;48.724;9.104;2024-03-08T05:57:16;18.63;;;9.07;;
75634;SDS011;64227;48.724;9.104;2024-03-08T05:59:42;16.60;;;8.20;;
75634;SDS011;64227;48.724;9.104;2024-03-08T06:02:07;14.45;;;8.45;;
75634;SDS011;64227;48.724;9.104;2024-03-08T06:04:32;15.30;;;7.68;;
75634;SDS011;64227;48.724;9.104;2024-03-08T06:06:58;19.13;;;8.27;;
75634;SDS011;64227;48.724;9.104;2024-03-08T06:09:24;15.45;;;7.72;;
75634;SDS011;64227;48.724;9.104;2024-03-08T06:11:54;16.42;;;7.65;;
75634;SDS011;64227;48.724;9.104;2024-03-08T06:14:20;17.45;;;8.77;;
75634;SDS011;64227;48.724;9.104;2024-03-08T06:16:46;15.82;;;8.20;;
75634;SDS011;64227;48.724;9.104;2024-03-08T06:19:11;15.25;;;7.95;;
75634;SDS011;64227;48.724;9.104;2024-03-08T06:21:43;18.30;;;8.27;;
75634;SDS011;64227;48.724;9.104;2024-03-08T06:24:08;16.60;;;9.02;;
75634;SDS011;64227;48.724;9.104;2024-03-08T06:26:34;19.88;;;9.32;;
75634;SDS011;64227;48.724;9.104;2024-03-08T06:28:59;14.38;;;7.63;;
75634;SDS011;64227;48.724;9.104;2024-03-08T06:31:24;16.50;;;8.63;;
75634;SDS011;64227;48.724;9.104;2024-03-08T06:33:50;18.63;;;8.55;;
75634;SDS011;64227;48.724;9.104;2024-03-08T06:36:16;15.13;;;8.38;;
75634;SDS011;64227;48.724;9.104;2024-03-08T06:38:43;16.90;;;8.90;;
75634;SDS011;64227;48.724;9.104;2024-03-08T06:41:11;16.63;;;8.07;;
75634;SDS011;64227;48.724;9.104;2024-03-08T06:43:43;16.15;;;7.22;;
75634;SDS011;64227;48.724;9.104;2024-03-08T06:46:12;16.98;;;8.65;;
75634;SDS011;64227;48.724;9.104;2024-03-08T06:48:45;16.08;;;8.00;;
75634;SDS011;64227;48.724;9.104;2024-03-08T06:51:38;13.88;;;7.70;;
75634;SDS011;64227;48.724;9.104;2024-03-08T06:54:08;17.20;;;9.20;;
75634;SDS011;64227;48.724;9.104;2024-03-08T06:56:47;17.20;;;9.30;;
75634;SDS011;64227;48.724;9.104;2024-03-08T06:59:20;20.05;;;9.55;;
75634;SDS011;64227;48.724;9.104;2024-03-08T07:01:48;19.42;;;9.60;;
75634;SDS011;64227;48.724;9.104;2024-03-08T07:04:13;18.80;;;10.20;;
75634;SDS011;64227;48.724;9.104;2024-03-08T07:06:39;20.13;;;9.95;;
75634;SDS011;64227;48.724;9.104;2024-03-08T07:09:09;18.48;;;9.50;;
75634;SDS011;64227;48.724;9.104;2024-03-08T07:12:18;19.73;;;9.65;;
75634;SDS011;64227;48.724;9.104;2024-03-08T07:15:05;21.30;;;10.77;;
75634;SDS011;64227;48.724;9.104;2024-03-08T07:17:44;19.20;;;8.85;;
75634;SDS011;64227;48.724;9.104;2024-03-08T07:20:15;17.90;;;9.55;;
75634;SDS011;64227;48.724;9.104;2024-03-08T07:22:54;18.67;;;9.48;;
75634;SDS011;64227;48.724;9.104;2024-03-08T07:25:20;21.08;;;9.88;;
75634;SDS011;64227;48.724;9.104;2024-03-08T07:30:15;18.23;;;8.82;;
75634;SDS011;64227;48.724;9.104;2024-03-08T07:33:00;18.85;;;9.18;;
75634;SDS011;64227;48.724;9.104;2024-03-08T07:35:27;19.63;;;8.95;;
75634;SDS011;64227;48.724;9.104;2024-03-08T07:37:53;16.05;;;9.10;;
75634;SDS011;64227;48.724;9.104;2024-03-08T07:40:20;16.88;;;9.05;;
75634;SDS011;64227;48.724;9.104;2024-03-08T07:42:46;21.63;;;10.30;;
75634;SDS011;64227;48.724;9.104;2024-03-08T07:45:11;21.67;;;9.60;;
75634;SDS011;64227;48.724;9.104;2024-03-08T07:47:37;19.88;;;9.52;;
75634;SDS011;64227;48.724;9.104;2024-03-08T07:50:03;17.80;;;8.95;;
75634;SDS011;64227;48.724;9.104;2024-03-08T07:52:28;17.05;;;8.70;;
75634;SDS011;64227;48.724;9.104;2024-03-08T07:54:54;18.17;;;10.48;;
75634;SDS011;64227;48.724;9.104;2024-03-08T07:57:19;16.77;;;8.98;;
75634;SDS011;64227;48.724;9.104;2024-03-08T07:59:45;16.90;;;9.27;;
75634;SDS011;64227;48.724;9.104;2024-03-08T08:02:10;19.83;;;9.82;;
75634;SDS011;64227;48.724;9.104;2024-03-08T08:04:35;18.27;;;9.45;;
75634;SDS011;64227;48.724;9.104;2024-03-08T08:07:01;18.20;;;9.70;;
75634;SDS011;64227;48.724;9.104;2024-03-08T08:09:26;14.90;;;7.90;;
75634;SDS011;64227;48.724;9.104;2024-03-08T08:11:59;17.33;;;9.65;;
75634;SDS011;64227;48.724;9.104;2024-03-08T08:14:26;18.20;;;10.40;;
75634;SDS011;64227;48.724;9.104;2024-03-08T08:16:52;17.40;;;9.48;;
75634;SDS011;64227;48.724;9.104;2024-03-08T08:19:18;18.92;;;9.38;;
75634;SDS011;64227;48.724;9.104;2024-03-08T08:21:43;18.35;;;9.07;;
75634;SDS011;64227;48.724;9.104;2024-03-08T08:24:09;18.25;;;8.93;;
75634;SDS011;64227;48.724;9.104;2024-03-08T08:26:35;16.35;;;9.13;;
75634;SDS011;64227;48.724;9.104;2024-03-08T08:29:01;17.90;;;9.48;;
75634;SDS011;64227;48.724;9.104;2024-03-08T08:31:26;20.33;;;9.00;;
75634;SDS011;64227;48.724;9.104;2024-03-08T08:33:52;17.85;;;9.77;;
75634;SDS011;64227;48.724;9.104;2024-03-08T08:36:23;19.05;;;8.68;;
75634;SDS011;64227;48.724;9.104;2024-03-08T08:38:48;17.13;;;8.38;;
75634;SDS011;64227;48.724;9.104;2024-03-08T08:41:13;18.70;;;8.88;;
75634;SDS011;64227;48.724;9.104;2024-03-08T08:43:42;17.38;;;8.98;;
75634;SDS011;64227;48.724;9.104;2024-03-08T08:46:09;14.88;;;8.90;;
75634;SDS011;64227;48.724;9.104;2024-03-08T08:48:38;13.55;;;8.00;;
75634;SDS011;64227;48.724;9.104;2024-03-08T08:51:06;18.02;;;8.15;;
75634;SDS011;64227;48.724;9.104;2024-03-08T08:53:31;17.52;;;9.52;;
75634;SDS011;64227;48.724;9.104;2024-03-08T08:55:56;16.92;;;8.75;;
75634;SDS011;64227;48.724;9.104;2024-03-08T08:58:22;25.13;;;11.98;;
75634;SDS011;64227;48.724;9.104;2024-03-08T09:00:47;22.63;;;11.23;;
75634;SDS011;64227;48.724;9.104;2024-03-08T09:03:12;21.27;;;10.95;;
75634;SDS011;64227;48.724;9.104;2024-03-08T09:05:38;18.65;;;9.80;;
75634;SDS011;64227;48.724;9.104;2024-03-08T09:08:03;20.40;;;10.35;;
75634;SDS011;64227;48.724;9.104;2024-03-08T09:10:29;26.80;;;12.52;;
75634;SDS011;64227;48.724;9.104;2024-03-08T09:12:54;21.95;;;10.73;;
75634;SDS011;64227;48.724;9.104;2024-03-08T09:15:19;16.58;;;9.27;;
75634;SDS011;64227;48.724;9.104;2024-03-08T09:17:45;17.27;;;9.52;;
75634;SDS011;64227;48.724;9.104;2024-03-08T09:20:12;24.02;;;12.75;;
75634;SDS011;64227;48.724;9.104;2024-03-08T09:22:40;18.40;;;11.27;;
75634;SDS011;64227;48.724;9.104;2024-03-08T09:25:11;14.82;;;9.73;;
75634;SDS011;64227;48.724;9.104;2024-03-08T09:27:36;16.52;;;8.48;;
75634;SDS011;64227;48.724;9.104;2024-03-08T09:30:02;15.05;;;9.07;;
75634;SDS011;64227;48.724;9.104;2024-03-08T09:32:29;14.63;;;7.80;;
75634;SDS011;64227;48.724;9.104;2024-03-08T09:34:54;14.65;;;7.95;;
75634;SDS011;64227;48.724;9.104;2024-03-08T09:37:21;12.90;;;6.75;;
75634;SDS011;64227;48.724;9.104;2024-03-08T09:39:46;13.90;;;7.93;;
75634;SDS011;64227;48.724;9.104;2024-03-08T09:42:11;15.07;;;8.23;;
75634;SDS011;64227;48.724;9.104;2024-03-08T09:44:43;12.52;;;7.68;;
75634;SDS011;64227;48.724;9.104;2024-03-08T09:47:09;14.90;;;8.27;;
75634;SDS011;64227;48.724;9.104;2024-03-08T09:49:48;16.35;;;8.00;;
75634;SDS011;64227;48.724;9.104;2024-03-08T09:52:18;13.73;;;7.70;;
75634;SDS011;64227;48.724;9.104;2024-03-08T09:54:43;15.82;;;8.05;;
75634;SDS011;64227;48.724;9.104;2024-03-08T09:57:09;15.63;;;8.30;;
75634;SDS011;64227;48.724;9.104;2024-03-08T09:59:35;11.98;;;7.28;;
75634;SDS011;64227;48.724;9.104;2024-03-08T10:02:00;15.30;;;8.93;;
75634;SDS011;64227;48.724;9.104;2024-03-08T10:04:27;16.35;;;8.13;;
75634;SDS011;64227;48.724;9.104;2024-03-08T10:06:55;14.88;;;8.00;;
75634;SDS011;64227;48.724;9.104;2024-03-08T10:09:24;15.05;;;8.27;;
75634;SDS011;64227;48.724;9.104;2024-03-08T10:11:52;15.43;;;8.02;;
75634;SDS011;64227;48.724;9.104;2024-03-08T10:14:20;14.30;;;7.50;;
75634;SDS011;64227;48.724;9.104;2024-03-08T10:16:46;14.60;;;8.90;;
75634;SDS011;64227;48.724;9.104;2024-03-08T10:19:11;12.10;;;7.35;;
75634;SDS011;64227;48.724;9.104;2024-03-08T10:21:47;14.27;;;7.97;;
75634;SDS011;64227;48.724;9.104;2024-03-08T10:24:15;13.27;;;7.25;;
75634;SDS011;64227;48.724;9.104;2024-03-08T10:26:40;16.95;;;8.15;;
75634;SDS011;64227;48.724;9.104;2024-03-08T10:29:08;14.65;;;8.77;;
75634;SDS011;64227;48.724;9.104;2024-03-08T10:31:33;15.10;;;8.48;;
75634;SDS011;64227;48.724;9.104;2024-03-08T10:33:59;15.02;;;8.55;;
75634;SDS011;64227;48.724;9.104;2024-03-08T10:36:24;19.00;;;9.65;;
75634;SDS011;64227;48.724;9.104;2024-03-08T10:38:51;14.32;;;7.97;;
75634;SDS011;64227;48.724;9.104;2024-03-08T10:41:18;15.50;;;8.13;;
75634;SDS011;64227;48.724;9.104;2024-03-08T10:44:08;13.32;;;7.78;;
75634;SDS011;64227;48.724;9.104;2024-03-08T10:49:25;15.82;;;8.45;;
75634;SDS011;64227;48.724;9.104;2024-03-08T10:51:52;15.95;;;8.75;;
75634;SDS011;64227;48.724;9.104;2024-03-08T10:54:18;15.38;;;8.40;;
75634;SDS011;64227;48.724;9.104;2024-03-08T10:56:44;13.30;;;7.55;;
75634;SDS011;64227;48.724;9.104;2024-03-08T10:59:10;13.63;;;7.63;;
75634;SDS011;64227;48.724;9.104;2024-03-08T11:01:36;14.27;;;8.00;;
75634;SDS011;64227;48.724;9.104;2024-03-08T11:04:05;14.68;;;7.85;;
75634;SDS011;64227;48.724;9.104;2024-03-08T11:09:03;15.27;;;8.93;;
75634;SDS011;64227;48.724;9.104;2024-03-08T11:11:29;15.02;;;8.35;;
75634;SDS011;64227;48.724;9.104;2024-03-08T11:13:57;15.07;;;8.60;;
75634;SDS011;64227;48.724;9.104;2024-03-08T11:19:01;12.55;;;7.32;;
75634;SDS011;64227;48.724;9.104;2024-03-08T11:21:31;12.93;;;7.28;;
75634;SDS011;64227;48.724;9.104;2024-03-08T11:24:16;12.60;;;7.93;;
75634;SDS011;64227;48.724;9.104;2024-03-08T11:26:41;15.15;;;8.32;;
75634;SDS011;64227;48.724;9.104;2024-03-08T11:29:32;14.93;;;8.55;;
75634;SDS011;64227;48.724;9.104;2024-03-08T11:32:16;10.50;;;6.97;;
75634;SDS011;64227;48.724;9.104;2024-03-08T11:34:48;13.65;;;7.43;;
75634;SDS011;64227;48.724;9.104;2024-03-08T11:37:16;11.55;;;6.85;;
75634;SDS011;64227;48.724;9.104;2024-03-08T11:39:55;11.20;;;7.15;;
75634;SDS011;64227;48.724;9.104;2024-03-08T11:42:29;11.05;;;6.78;;
75634;SDS011;64227;48.724;9.104;2024-03-08T11:44:55;12.25;;;7.30;;
75634;SDS011;64227;48.724;9.104;2024-03-08T11:47:21;18.25;;;8.30;;
75634;SDS011;64227;48.724;9.104;2024-03-08T11:49:46;12.77;;;7.25;;
75634;SDS011;64227;48.724;9.104;2024-03-08T11:52:13;11.93;;;8.00;;
75634;SDS011;64227;48.724;9.104;2024-03-08T11:54:45;13.10;;;8.10;;
75634;SDS011;64227;48.724;9.104;2024-03-08T11:57:16;11.25;;;7.05;;
75634;SDS011;64227;48.724;9.104;2024-03-08T11:59:49;11.50;;;6.55;;
75634;SDS011;64227;48.724;9.104;2024-03-08T12:02:15;12.75;;;6.68;;
75634;SDS011;64227;48.724;9.104;2024-03-08T12:04:40;10.88;;;7.25;;
75634;SDS011;64227;48.724;9.104;2024-03-08T12:07:09;10.63;;;6.95;;
75634;SDS011;64227;48.724;9.104;2024-03-08T12:09:37;11.15;;;7.00;;
75634;SDS011;64227;48.724;9.104;2024-03-08T12:12:03;13.18;;;7.75;;
75634;SDS011;64227;48.724;9.104;2024-03-08T12:14:29;12.65;;;7.88;;
75634;SDS011;64227;48.724;9.104;2024-03-08T12:16:58;12.20;;;8.00;;
75634;SDS011;64227;48.724;9.104;2024-03-08T12:19:26;11.45;;;7.35;;
75634;SDS011;64227;48.724;9.104;2024-03-08T12:21:53;12.45;;;7.30;;
75634;SDS011;64227;48.724;9.104;2024-03-08T12:24:19;11.35;;;7.22;;
75634;SDS011;64227;48.724;9.104;2024-03-08T12:26:45;11.10;;;7.00;;
75634;SDS011;64227;48.724;9.104;2024-03-08T12:31:45;11.55;;;7.72;;
75634;SDS011;64227;48.724;9.104;2024-03-08T12:34:11;11.15;;;7.53;;
75634;SDS011;64227;48.724;9.104;2024-03-08T12:36:38;11.88;;;8.60;;
75634;SDS011;64227;48.724;9.104;2024-03-08T12:39:09;11.05;;;8.10;;
75634;SDS011;64227;48.724;9.104;2024-03-08T12:41:39;11.77;;;8.00;;
75634;SDS011;64227;48.724;9.104;2024-03-08T12:44:04;11.55;;;7.75;;
75634;SDS011;64227;48.724;9.104;2024-03-08T12:46:32;12.73;;;7.80;;
75634;SDS011;64227;48.724;9.104;2024-03-08T12:48:57;13.20;;;9.45;;
75634;SDS011;64227;48.724;9.104;2024-03-08T12:51:24;12.52;;;9.32;;
75634;SDS011;64227;48.724;9.104;2024-03-08T12:53:50;11.85;;;8.18;;
75634;SDS011;64227;48.724;9.104;2024-03-08T12:56:29;12.65;;;8.68;;
75634;SDS011;64227;48.724;9.104;2024-03-08T12:58:58;10.77;;;8.18;;
75634;SDS011;64227;48.724;9.104;2024-03-08T13:01:24;10.45;;;7.47;;
75634;SDS011;64227;48.724;9.104;2024-03-08T13:03:50;12.82;;;8.32;;
75634;SDS011;64227;48.724;9.104;2024-03-08T13:06:15;11.65;;;7.45;;
75634;SDS011;64227;48.724;9.104;2024-03-08T13:08:41;14.10;;;8.82;;
75634;SDS011;64227;48.724;9.104;2024-03-08T13:11:10;11.60;;;8.02;;
75634;SDS011;64227;48.724;9.104;2024-03-08T13:13:39;13.35;;;8.88;;
75634;SDS011;64227;48.724;9.104;2024-03-08T13:16:05;12.73;;;8.65;;
75634;SDS011;64227;48.724;9.104;2024-03-08T13:18:33;11.00;;;7.97;;
75634;SDS011;64227;48.724;9.104;2024-03-08T13:20:59;12.20;;;7.78;;
75634;SDS011;64227;48.724;9.104;2024-03-08T13:23:29;11.77;;;8.38;;
75634;SDS011;64227;48.724;9.104;2024-03-08T13:25:55;12.30;;;8.52;;
75634;SDS011;64227;48.724;9.104;2024-03-08T13:28:21;11.90;;;8.10;;
75634;SDS011;64227;48.724;9.104;2024-03-08T13:30:52;11.02;;;8.13;;
75634;SDS011;64227;48.724;9.104;2024-03-08T13:33:18;13.80;;;8.75;;
75634;SDS011;64227;48.724;9.104;2024-03-08T13:35:44;12.85;;;8.50;;
75634;SDS011;64227;48.724;9.104;2024-03-08T13:38:09;10.55;;;7.65;;
75634;SDS011;64227;48.724;9.104;2024-03-08T13:40:38;14.18;;;9.75;;
75634;SDS011;64227;48.724;9.104;2024-03-08T13:43:05;12.75;;;8.45;;
75634;SDS011;64227;48.724;9.104;2024-03-08T13:45:32;15.27;;;9.23;;
75634;SDS011;64227;48.724;9.104;2024-03-08T13:47:58;11.82;;;8.32;;
75634;SDS011;64227;48.724;9.104;2024-03-08T13:50:24;12.23;;;8.63;;
75634;SDS011;64227;48.724;9.104;2024-03-08T13:52:50;14.15;;;9.55;;
75634;SDS011;64227;48.724;9.104;2024-03-08T13:55:17;13.18;;;8.63;;
75634;SDS011;64227;48.724;9.104;2024-03-08T13:57:42;12.57;;;8.75;;
75634;SDS011;64227;48.724;9.104;2024-03-08T14:00:10;14.35;;;9.00;;
75634;SDS011;64227;48.724;9.104;2024-03-08T14:02:36;12.70;;;7.90;;
75634;SDS011;64227;48.724;9.104;2024-03-08T14:05:01;12.43;;;8.65;;
75634;SDS011;64227;48.724;9.104;2024-03-08T14:07:27;12.93;;;8.90;;
75634;SDS011;64227;48.724;9.104;2024-03-08T14:09:53;13.15;;;8.77;;
75634;SDS011;64227;48.724;9.104;2024-03-08T14:12:19;16.70;;;9.70;;
75634;SDS011;64227;48.724;9.104;2024-03-08T14:17:54;15.65;;;8.93;;
75634;SDS011;64227;48.724;9.104;2024-03-08T14:20:20;14.32;;;9.35;;
75634;SDS011;64227;48.724;9.104;2024-03-08T14:22:50;13.77;;;8.95;;
75634;SDS011;64227;48.724;9.104;2024-03-08T14:25:21;13.82;;;9.05;;
75634;SDS011;64227;48.724;9.104;2024-03-08T14:27:48;13.27;;;8.63;;
75634;SDS011;64227;48.724;9.104;2024-03-08T14:30:14;13.15;;;8.73;;
75634;SDS011;64227;48.724;9.104;2024-03-08T14:32:56;13.07;;;8.95;;
75634;SDS011;64227;48.724;9.104;2024-03-08T14:35:22;16.77;;;8.88;;
75634;SDS011;64227;48.724;9.104;2024-03-08T14:37:49;17.00;;;9.75;;
75634;SDS011;64227;48.724;9.104;2024-03-08T14:40:15;13.43;;;8.68;;
75634;SDS011;64227;48.724;9.104;2024-03-08T14:42:41;15.98;;;8.80;;
75634;SDS011;64227;48.724;9.104;2024-03-08T14:45:07;13.88;;;8.85;;
75634;SDS011;64227;48.724;9.104;2024-03-08T14:47:34;14.68;;;9.43;;
75634;SDS011;64227;48.724;9.104;2024-03-08T14:49:59;15.32;;;8.63;;
75634;SDS011;64227;48.724;9.104;2024-03-08T14:52:24;14.27;;;8.80;;
75634;SDS011;64227;48.724;9.104;2024-03-08T14:54:53;14.68;;;9.13;;